sensor_id;sensor_type;location;lat;lon;timestamp;temperature;humidity
9544;DHT22;30418;51.45933468;7.33152330;2023-09-30T00:00:08;20.00;62.60
9544;DHT22;30418;51.45933468;7.33152330;2023-09-30T00:02:38;20.00;62.60
9544;DHT22;30418;51.45933468;7.33152330;2023-09-30T00:05:08;20.00;62.60
9544;DHT22;30418;51.45933468;7.33152330;2023-09-30T00:07:37;19.90;62.50
9544;DHT22;30418;51.45933468;7.33152330;2023-09-30T00:10:06;19.90;62.50
9544;DHT22;30418;51.45933468;7.33152330;2023-09-30T00:12:38;19.90;62.50
9544;DHT22;30418;51.45933468;7.33152330;2023-09-30T00:15:07;19.90;62.40
9544;DHT22;30418;51.45933468;7.33152330;2023-09-30T00:17:36;19.90;62.40
9544;DHT22;30418;51.45933468;7.33152330;2023-09-30T00:20:06;19.90;62.40
9544;DHT22;30418;51.45933468;7.33152330;2023-09-30T00:22:35;19.90;62.50
9544;DHT22;30418;51.45933468;7.33152330;2023-09-30T00:25:05;19.90;62.40
9544;DHT22;30418;51.45933468;7.33152330;2023-09-30T00:27:34;19.90;62.50
9544;DHT22;30418;51.45933468;7.33152330;2023-09-30T00:30:06;19.90;62.40
9544;DHT22;30418;51.45933468;7.33152330;2023-09-30T00:32:35;19.80;62.30
9544;DHT22;30418;51.45933468;7.33152330;2023-09-30T00:35:05;19.80;62.30
9544;DHT22;30418;51.45933468;7.33152330;2023-09-30T00:37:36;19.80;62.30
9544;DHT22;30418;51.45933468;7.33152330;2023-09-30T00:40:06;19.80;62.30
9544;DHT22;30418;51.45933468;7.33152330;2023-09-30T00:42:39;19.80;62.40
9544;DHT22;30418;51.45933468;7.33152330;2023-09-30T00:45:10;19.80;62.40
9544;DHT22;30418;51.45933468;7.33152330;2023-09-30T00:47:40;19.70;62.30
9544;DHT22;30418;51.45933468;7.33152330;2023-09-30T00:50:09;19.70;62.30
9544;DHT22;30418;51.45933468;7.33152330;2023-09-30T00:52:40;19.70;62.30
9544;DHT22;30418;51.45933468;7.33152330;2023-09-30T00:55:09;19.70;62.40
9544;DHT22;30418;51.45933468;7.33152330;2023-09-30T00:57:38;19.70;62.40
9544;DHT22;30418;51.45933468;7.33152330;2023-09-30T01:00:09;19.70;62.50
9544;DHT22;30418;51.45933468;7.33152330;2023-09-30T01:02:41;19.70;62.50
9544;DHT22;30418;51.45933468;7.33152330;2023-09-30T01:05:11;19.70;62.50
9544;DHT22;30418;51.45933468;7.33152330;2023-09-30T01:07:40;19.70;62.50
9544;DHT22;30418;51.45933468;7.33152330;2023-09-30T01:10:09;19.70;63.40
9544;DHT22;30418;51.45933468;7.33152330;2023-09-30T01:12:38;19.70;62.60
9544;DHT22;30418;51.45933468;7.33152330;2023-09-30T01:15:08;19.70;62.50
9544;DHT22;30418;51.45933468;7.33152330;2023-09-30T01:17:37;19.60;62.50
9544;DHT22;30418;51.45933468;7.33152330;2023-09-30T01:20:06;19.60;62.40
9544;DHT22;30418;51.45933468;7.33152330;2023-09-30T01:22:37;19.60;62.40
9544;DHT22;30418;51.45933468;7.33152330;2023-09-30T01:25:07;19.60;62.50
9544;DHT22;30418;51.45933468;7.33152330;2023-09-30T01:27:37;19.60;62.50
9544;DHT22;30418;51.45933468;7.33152330;2023-09-30T01:30:06;19.60;62.50
9544;DHT22;30418;51.45933468;7.33152330;2023-09-30T01:32:38;19.60;62.60
9544;DHT22;30418;51.45933468;7.33152330;2023-09-30T01:35:07;19.60;62.60
9544;DHT22;30418;51.45933468;7.33152330;2023-09-30T01:37:39;19.60;62.70
9544;DHT22;30418;51.45933468;7.33152330;2023-09-30T01:40:09;19.50;62.50
9544;DHT22;30418;51.45933468;7.33152330;2023-09-30T01:42:39;19.50;62.50
9544;DHT22;30418;51.45933468;7.33152330;2023-09-30T01:45:08;19.50;62.50
9544;DHT22;30418;51.45933468;7.33152330;2023-09-30T01:47:38;19.50;62.50
9544;DHT22;30418;51.45933468;7.33152330;2023-09-30T01:50:07;19.50;62.50
9544;DHT22;30418;51.45933468;7.33152330;2023-09-30T01:52:36;19.50;62.50
9544;DHT22;30418;51.45933468;7.33152330;2023-09-30T01:55:06;19.50;62.50
9544;DHT22;30418;51.45933468;7.33152330;2023-09-30T01:57:35;19.50;62.50
9544;DHT22;30418;51.45933468;7.33152330;2023-09-30T02:00:05;19.40;62.30
9544;DHT22;30418;51.45933468;7.33152330;2023-09-30T02:02:40;19.40;62.40
9544;DHT22;30418;51.45933468;7.33152330;2023-09-30T02:05:09;19.40;62.40
9544;DHT22;30418;51.45933468;7.33152330;2023-09-30T02:07:37;19.40;62.40
9544;DHT22;30418;51.45933468;7.33152330;2023-09-30T02:10:08;19.40;62.40
9544;DHT22;30418;51.45933468;7.33152330;2023-09-30T02:12:37;19.40;62.40
9544;DHT22;30418;51.45933468;7.33152330;2023-09-30T02:15:07;19.40;62.40
9544;DHT22;30418;51.45933468;7.33152330;2023-09-30T02:17:36;19.40;62.40
9544;DHT22;30418;51.45933468;7.33152330;2023-09-30T02:20:06;19.40;62.40
9544;DHT22;30418;51.45933468;7.33152330;2023-09-30T02:22:39;19.30;62.30
9544;DHT22;30418;51.45933468;7.33152330;2023-09-30T02:25:10;19.30;62.30
9544;DHT22;30418;51.45933468;7.33152330;2023-09-30T02:27:40;19.30;62.30
9544;DHT22;30418;51.45933468;7.33152330;2023-09-30T02:30:10;19.30;62.40
9544;DHT22;30418;51.45933468;7.33152330;2023-09-30T02:32:43;19.30;62.30
9544;DHT22;30418;51.45933468;7.33152330;2023-09-30T02:35:14;19.30;62.40
9544;DHT22;30418;51.45933468;7.33152330;2023-09-30T02:37:43;19.30;62.30
9544;DHT22;30418;51.45933468;7.33152330;2023-09-30T02:40:13;19.30;62.40
9544;DHT22;30418;51.45933468;7.33152330;2023-09-30T02:42:44;19.30;62.40
9544;DHT22;30418;51.45933468;7.33152330;2023-09-30T02:45:13;19.20;62.20
9544;DHT22;30418;51.45933468;7.33152330;2023-09-30T02:47:44;19.20;62.20
9544;DHT22;30418;51.45933468;7.33152330;2023-09-30T02:50:14;19.20;62.20
9544;DHT22;30418;51.45933468;7.33152330;2023-09-30T02:52:42;19.20;62.20
9544;DHT22;30418;51.45933468;7.33152330;2023-09-30T02:55:12;19.10;62.10
9544;DHT22;30418;51.45933468;7.33152330;2023-09-30T02:57:43;19.20;62.20
9544;DHT22;30418;51.45933468;7.33152330;2023-09-30T03:00:14;19.10;62.10
9544;DHT22;30418;51.45933468;7.33152330;2023-09-30T03:02:51;19.10;62.10
9544;DHT22;30418;51.45933468;7.33152330;2023-09-30T03:05:21;19.10;62.10
9544;DHT22;30418;51.45933468;7.33152330;2023-09-30T03:07:50;19.10;62.10
9544;DHT22;30418;51.45933468;7.33152330;2023-09-30T03:10:20;19.10;62.10
9544;DHT22;30418;51.45933468;7.33152330;2023-09-30T03:12:51;19.10;62.10
9544;DHT22;30418;51.45933468;7.33152330;2023-09-30T03:15:20;19.10;62.10
9544;DHT22;30418;51.45933468;7.33152330;2023-09-30T03:17:48;19.10;62.10
9544;DHT22;30418;51.45933468;7.33152330;2023-09-30T03:20:20;19.00;62.10
9544;DHT22;30418;51.45933468;7.33152330;2023-09-30T03:22:48;19.00;62.00
9544;DHT22;30418;51.45933468;7.33152330;2023-09-30T03:25:20;19.00;62.00
9544;DHT22;30418;51.45933468;7.33152330;2023-09-30T03:27:49;19.00;62.10
9544;DHT22;30418;51.45933468;7.33152330;2023-09-30T03:30:18;19.00;62.10
9544;DHT22;30418;51.45933468;7.33152330;2023-09-30T03:32:48;19.00;62.20
9544;DHT22;30418;51.45933468;7.33152330;2023-09-30T03:35:16;19.00;62.20
9544;DHT22;30418;51.45933468;7.33152330;2023-09-30T03:37:46;18.90;62.10
9544;DHT22;30418;51.45933468;7.33152330;2023-09-30T03:40:15;18.90;62.10
9544;DHT22;30418;51.45933468;7.33152330;2023-09-30T03:42:48;18.90;62.00
9544;DHT22;30418;51.45933468;7.33152330;2023-09-30T03:45:17;18.90;62.00
9544;DHT22;30418;51.45933468;7.33152330;2023-09-30T03:47:46;18.90;62.00
9544;DHT22;30418;51.45933468;7.33152330;2023-09-30T03:50:16;18.90;62.00
9544;DHT22;30418;51.45933468;7.33152330;2023-09-30T03:52:45;18.90;62.00
9544;DHT22;30418;51.45933468;7.33152330;2023-09-30T03:55:15;18.90;62.00
9544;DHT22;30418;51.45933468;7.33152330;2023-09-30T03:57:49;18.80;61.90
9544;DHT22;30418;51.45933468;7.33152330;2023-09-30T04:00:18;18.80;62.00
9544;DHT22;30418;51.45933468;7.33152330;2023-09-30T04:02:49;18.80;62.00
9544;DHT22;30418;51.45933468;7.33152330;2023-09-30T04:05:21;18.80;62.00
9544;DHT22;30418;51.45933468;7.33152330;2023-09-30T04:07:53;18.80;62.10
9544;DHT22;30418;51.45933468;7.33152330;2023-09-30T04:10:22;18.80;62.10
9544;DHT22;30418;51.45933468;7.33152330;2023-09-30T04:12:52;18.80;62.10
9544;DHT22;30418;51.45933468;7.33152330;2023-09-30T04:15:21;18.80;62.10
9544;DHT22;30418;51.45933468;7.33152330;2023-09-30T04:17:50;18.80;62.10
9544;DHT22;30418;51.45933468;7.33152330;2023-09-30T04:20:19;18.70;62.00
9544;DHT22;30418;51.45933468;7.33152330;2023-09-30T04:22:50;18.70;62.00
9544;DHT22;30418;51.45933468;7.33152330;2023-09-30T04:25:24;18.70;62.00
9544;DHT22;30418;51.45933468;7.33152330;2023-09-30T04:27:54;18.70;62.00
9544;DHT22;30418;51.45933468;7.33152330;2023-09-30T04:30:24;18.70;62.00
9544;DHT22;30418;51.45933468;7.33152330;2023-09-30T04:32:53;18.70;62.00
9544;DHT22;30418;51.45933468;7.33152330;2023-09-30T04:35:21;18.70;62.00
9544;DHT22;30418;51.45933468;7.33152330;2023-09-30T04:37:52;18.60;62.00
9544;DHT22;30418;51.45933468;7.33152330;2023-09-30T04:40:21;18.60;62.00
9544;DHT22;30418;51.45933468;7.33152330;2023-09-30T04:42:49;18.60;62.00
9544;DHT22;30418;51.45933468;7.33152330;2023-09-30T04:45:19;18.60;62.00
9544;DHT22;30418;51.45933468;7.33152330;2023-09-30T04:47:48;18.60;61.90
9544;DHT22;30418;51.45933468;7.33152330;2023-09-30T04:50:17;18.60;62.00
9544;DHT22;30418;51.45933468;7.33152330;2023-09-30T04:52:50;18.60;62.00
9544;DHT22;30418;51.45933468;7.33152330;2023-09-30T04:55:19;18.60;61.80
9544;DHT22;30418;51.45933468;7.33152330;2023-09-30T04:57:47;18.60;61.80
9544;DHT22;30418;51.45933468;7.33152330;2023-09-30T05:00:19;18.50;61.70
9544;DHT22;30418;51.45933468;7.33152330;2023-09-30T05:02:54;18.50;61.80
9544;DHT22;30418;51.45933468;7.33152330;2023-09-30T05:05:23;18.50;61.80
9544;DHT22;30418;51.45933468;7.33152330;2023-09-30T05:07:51;18.50;61.80
9544;DHT22;30418;51.45933468;7.33152330;2023-09-30T05:10:20;18.50;61.80
9544;DHT22;30418;51.45933468;7.33152330;2023-09-30T05:12:49;18.50;61.80
9544;DHT22;30418;51.45933468;7.33152330;2023-09-30T05:15:22;18.40;61.70
9544;DHT22;30418;51.45933468;7.33152330;2023-09-30T05:17:51;18.40;61.60
9544;DHT22;30418;51.45933468;7.33152330;2023-09-30T05:20:19;18.40;61.60
9544;DHT22;30418;51.45933468;7.33152330;2023-09-30T05:22:49;18.40;61.60
9544;DHT22;30418;51.45933468;7.33152330;2023-09-30T05:25:18;18.40;61.70
9544;DHT22;30418;51.45933468;7.33152330;2023-09-30T05:27:47;18.40;61.70
9544;DHT22;30418;51.45933468;7.33152330;2023-09-30T05:30:16;18.40;61.70
9544;DHT22;30418;51.45933468;7.33152330;2023-09-30T05:32:48;18.30;61.60
9544;DHT22;30418;51.45933468;7.33152330;2023-09-30T05:35:19;18.30;61.60
9544;DHT22;30418;51.45933468;7.33152330;2023-09-30T05:37:49;18.30;61.60
9544;DHT22;30418;51.45933468;7.33152330;2023-09-30T05:40:20;18.30;61.60
9544;DHT22;30418;51.45933468;7.33152330;2023-09-30T05:42:52;18.30;61.70
9544;DHT22;30418;51.45933468;7.33152330;2023-09-30T05:45:22;18.30;61.70
9544;DHT22;30418;51.45933468;7.33152330;2023-09-30T05:47:55;18.20;61.60
9544;DHT22;30418;51.45933468;7.33152330;2023-09-30T05:50:24;18.20;61.60
9544;DHT22;30418;51.45933468;7.33152330;2023-09-30T05:52:55;18.20;61.70
9544;DHT22;30418;51.45933468;7.33152330;2023-09-30T05:55:24;18.20;61.70
9544;DHT22;30418;51.45933468;7.33152330;2023-09-30T05:57:54;18.20;61.70
9544;DHT22;30418;51.45933468;7.33152330;2023-09-30T06:00:23;18.20;61.70
9544;DHT22;30418;51.45933468;7.33152330;2023-09-30T06:02:57;18.10;61.60
9544;DHT22;30418;51.45933468;7.33152330;2023-09-30T06:05:27;18.20;61.80
9544;DHT22;30418;51.45933468;7.33152330;2023-09-30T06:07:59;18.10;61.70
9544;DHT22;30418;51.45933468;7.33152330;2023-09-30T06:10:31;18.20;62.70
9544;DHT22;30418;51.45933468;7.33152330;2023-09-30T06:13:00;18.10;61.70
9544;DHT22;30418;51.45933468;7.33152330;2023-09-30T06:15:29;18.10;62.60
9544;DHT22;30418;51.45933468;7.33152330;2023-09-30T06:18:00;18.10;61.80
9544;DHT22;30418;51.45933468;7.33152330;2023-09-30T06:20:31;18.10;61.80
9544;DHT22;30418;51.45933468;7.33152330;2023-09-30T06:23:00;18.10;61.90
9544;DHT22;30418;51.45933468;7.33152330;2023-09-30T06:25:29;18.10;61.90
9544;DHT22;30418;51.45933468;7.33152330;2023-09-30T06:27:59;18.10;61.90
9544;DHT22;30418;51.45933468;7.33152330;2023-09-30T06:30:28;18.10;62.00
9544;DHT22;30418;51.45933468;7.33152330;2023-09-30T06:33:00;18.10;62.00
9544;DHT22;30418;51.45933468;7.33152330;2023-09-30T06:35:32;18.10;62.90
9544;DHT22;30418;51.45933468;7.33152330;2023-09-30T06:38:04;18.10;62.10
9544;DHT22;30418;51.45933468;7.33152330;2023-09-30T06:40:34;18.10;62.20
9544;DHT22;30418;51.45933468;7.33152330;2023-09-30T06:43:06;18.00;62.10
9544;DHT22;30418;51.45933468;7.33152330;2023-09-30T06:45:36;18.10;62.40
9544;DHT22;30418;51.45933468;7.33152330;2023-09-30T06:48:11;18.10;62.40
9544;DHT22;30418;51.45933468;7.33152330;2023-09-30T06:50:43;18.10;62.60
9544;DHT22;30418;51.45933468;7.33152330;2023-09-30T06:53:12;18.10;62.70
9544;DHT22;30418;51.45933468;7.33152330;2023-09-30T06:55:41;18.10;62.70
9544;DHT22;30418;51.45933468;7.33152330;2023-09-30T06:58:10;18.10;62.80
9544;DHT22;30418;51.45933468;7.33152330;2023-09-30T07:00:40;18.10;62.80
9544;DHT22;30418;51.45933468;7.33152330;2023-09-30T07:03:10;18.20;63.10
9544;DHT22;30418;51.45933468;7.33152330;2023-09-30T07:05:40;18.20;63.10
9544;DHT22;30418;51.45933468;7.33152330;2023-09-30T07:08:08;18.20;63.10
9544;DHT22;30418;51.45933468;7.33152330;2023-09-30T07:10:37;18.20;63.20
9544;DHT22;30418;51.45933468;7.33152330;2023-09-30T07:13:05;18.20;63.30
9544;DHT22;30418;51.45933468;7.33152330;2023-09-30T07:15:34;18.20;63.30
9544;DHT22;30418;51.45933468;7.33152330;2023-09-30T07:18:03;18.30;63.60
9544;DHT22;30418;51.45933468;7.33152330;2023-09-30T07:20:34;18.30;64.40
9544;DHT22;30418;51.45933468;7.33152330;2023-09-30T07:23:02;18.30;63.70
9544;DHT22;30418;51.45933468;7.33152330;2023-09-30T07:25:46;18.30;63.70
9544;DHT22;30418;51.45933468;7.33152330;2023-09-30T07:28:15;18.30;63.60
9544;DHT22;30418;51.45933468;7.33152330;2023-09-30T07:30:44;18.40;63.80
9544;DHT22;30418;51.45933468;7.33152330;2023-09-30T07:33:12;18.30;63.70
9544;DHT22;30418;51.45933468;7.33152330;2023-09-30T07:35:42;18.40;63.80
9544;DHT22;30418;51.45933468;7.33152330;2023-09-30T07:38:11;18.40;63.70
9544;DHT22;30418;51.45933468;7.33152330;2023-09-30T07:40:39;18.40;63.80
9544;DHT22;30418;51.45933468;7.33152330;2023-09-30T07:43:08;18.40;63.80
9544;DHT22;30418;51.45933468;7.33152330;2023-09-30T07:45:37;18.50;64.00
9544;DHT22;30418;51.45933468;7.33152330;2023-09-30T07:48:07;18.50;64.10
9544;DHT22;30418;51.45933468;7.33152330;2023-09-30T07:50:36;18.50;64.20
9544;DHT22;30418;51.45933468;7.33152330;2023-09-30T07:53:06;18.50;64.10
9544;DHT22;30418;51.45933468;7.33152330;2023-09-30T07:55:34;18.50;64.40
9544;DHT22;30418;51.45933468;7.33152330;2023-09-30T07:58:03;18.60;64.50
9544;DHT22;30418;51.45933468;7.33152330;2023-09-30T08:00:31;18.60;64.50
9544;DHT22;30418;51.45933468;7.33152330;2023-09-30T08:03:01;18.60;64.70
9544;DHT22;30418;51.45933468;7.33152330;2023-09-30T08:05:30;18.60;64.70
9544;DHT22;30418;51.45933468;7.33152330;2023-09-30T08:07:58;18.60;64.70
9544;DHT22;30418;51.45933468;7.33152330;2023-09-30T08:10:30;18.70;64.80
9544;DHT22;30418;51.45933468;7.33152330;2023-09-30T08:12:59;18.70;64.90
9544;DHT22;30418;51.45933468;7.33152330;2023-09-30T08:15:29;18.80;65.00
9544;DHT22;30418;51.45933468;7.33152330;2023-09-30T08:17:58;18.80;65.00
9544;DHT22;30418;51.45933468;7.33152330;2023-09-30T08:20:27;18.80;65.00
9544;DHT22;30418;51.45933468;7.33152330;2023-09-30T08:22:55;18.90;65.10
9544;DHT22;30418;51.45933468;7.33152330;2023-09-30T08:25:24;18.90;65.20
9544;DHT22;30418;51.45933468;7.33152330;2023-09-30T08:27:54;19.00;65.20
9544;DHT22;30418;51.45933468;7.33152330;2023-09-30T08:30:23;19.00;65.10
9544;DHT22;30418;51.45933468;7.33152330;2023-09-30T08:32:51;19.10;65.10
9544;DHT22;30418;51.45933468;7.33152330;2023-09-30T08:35:20;19.10;65.00
9544;DHT22;30418;51.45933468;7.33152330;2023-09-30T08:37:48;19.10;65.10
9544;DHT22;30418;51.45933468;7.33152330;2023-09-30T08:40:20;19.20;65.20
9544;DHT22;30418;51.45933468;7.33152330;2023-09-30T08:42:51;19.20;65.10
9544;DHT22;30418;51.45933468;7.33152330;2023-09-30T08:45:22;19.30;65.20
9544;DHT22;30418;51.45933468;7.33152330;2023-09-30T08:47:51;19.30;65.10
9544;DHT22;30418;51.45933468;7.33152330;2023-09-30T08:50:21;19.30;65.10
9544;DHT22;30418;51.45933468;7.33152330;2023-09-30T08:52:50;19.40;65.10
9544;DHT22;30418;51.45933468;7.33152330;2023-09-30T08:55:19;19.40;65.00
9544;DHT22;30418;51.45933468;7.33152330;2023-09-30T08:57:48;19.50;65.00
9544;DHT22;30418;51.45933468;7.33152330;2023-09-30T09:00:20;19.50;65.00
9544;DHT22;30418;51.45933468;7.33152330;2023-09-30T09:02:50;19.60;65.00
9544;DHT22;30418;51.45933468;7.33152330;2023-09-30T09:05:18;19.60;65.00
9544;DHT22;30418;51.45933468;7.33152330;2023-09-30T09:07:47;19.60;65.70
9544;DHT22;30418;51.45933468;7.33152330;2023-09-30T09:10:17;19.70;64.90
9544;DHT22;30418;51.45933468;7.33152330;2023-09-30T09:12:54;19.70;64.80
9544;DHT22;30418;51.45933468;7.33152330;2023-09-30T09:15:27;19.70;64.80
9544;DHT22;30418;51.45933468;7.33152330;2023-09-30T09:17:56;19.80;64.80
9544;DHT22;30418;51.45933468;7.33152330;2023-09-30T09:20:25;19.80;64.80
9544;DHT22;30418;51.45933468;7.33152330;2023-09-30T09:22:55;19.80;64.60
9544;DHT22;30418;51.45933468;7.33152330;2023-09-30T09:25:27;19.90;64.70
9544;DHT22;30418;51.45933468;7.33152330;2023-09-30T09:27:55;19.90;64.50
9544;DHT22;30418;51.45933468;7.33152330;2023-09-30T09:30:26;20.00;64.40
9544;DHT22;30418;51.45933468;7.33152330;2023-09-30T09:32:59;20.00;64.40
9544;DHT22;30418;51.45933468;7.33152330;2023-09-30T09:35:29;20.10;64.00
9544;DHT22;30418;51.45933468;7.33152330;2023-09-30T09:38:00;20.10;63.90
9544;DHT22;30418;51.45933468;7.33152330;2023-09-30T09:40:31;20.10;63.70
9544;DHT22;30418;51.45933468;7.33152330;2023-09-30T09:43:01;20.20;63.80
9544;DHT22;30418;51.45933468;7.33152330;2023-09-30T09:45:34;20.20;63.90
9544;DHT22;30418;51.45933468;7.33152330;2023-09-30T09:48:05;20.20;63.30
9544;DHT22;30418;51.45933468;7.33152330;2023-09-30T09:50:35;20.30;63.60
9544;DHT22;30418;51.45933468;7.33152330;2023-09-30T09:53:05;20.30;63.60
9544;DHT22;30418;51.45933468;7.33152330;2023-09-30T09:55:35;20.40;64.40
9544;DHT22;30418;51.45933468;7.33152330;2023-09-30T09:58:07;20.40;63.50
9544;DHT22;30418;51.45933468;7.33152330;2023-09-30T10:00:38;20.50;63.60
9544;DHT22;30418;51.45933468;7.33152330;2023-09-30T10:03:09;20.50;63.70
9544;DHT22;30418;51.45933468;7.33152330;2023-09-30T10:05:39;20.60;63.50
9544;DHT22;30418;51.45933468;7.33152330;2023-09-30T10:08:11;20.60;63.30
9544;DHT22;30418;51.45933468;7.33152330;2023-09-30T10:10:44;20.70;63.10
9544;DHT22;30418;51.45933468;7.33152330;2023-09-30T10:16:48;20.80;62.40
9544;DHT22;30418;51.45933468;7.33152330;2023-09-30T10:19:21;20.90;62.20
9544;DHT22;30418;51.45933468;7.33152330;2023-09-30T10:22:22;21.00;62.40
9544;DHT22;30418;51.45933468;7.33152330;2023-09-30T10:24:53;21.00;61.80
9544;DHT22;30418;51.45933468;7.33152330;2023-09-30T10:27:43;21.00;62.00
9544;DHT22;30418;51.45933468;7.33152330;2023-09-30T10:30:13;21.10;61.80
9544;DHT22;30418;51.45933468;7.33152330;2023-09-30T10:33:11;21.10;62.20
9544;DHT22;30418;51.45933468;7.33152330;2023-09-30T10:35:47;21.20;61.50
9544;DHT22;30418;51.45933468;7.33152330;2023-09-30T10:38:38;21.20;61.80
9544;DHT22;30418;51.45933468;7.33152330;2023-09-30T10:41:10;21.30;61.30
9544;DHT22;30418;51.45933468;7.33152330;2023-09-30T10:53:28;21.10;60.30
9544;DHT22;30418;51.45933468;7.33152330;2023-09-30T10:55:59;21.10;60.80
9544;DHT22;30418;51.45933468;7.33152330;2023-09-30T10:58:39;21.10;61.00
9544;DHT22;30418;51.45933468;7.33152330;2023-09-30T11:01:09;21.00;60.20
9544;DHT22;30418;51.45933468;7.33152330;2023-09-30T11:03:38;21.00;60.70
9544;DHT22;30418;51.45933468;7.33152330;2023-09-30T11:06:11;21.00;60.90
9544;DHT22;30418;51.45933468;7.33152330;2023-09-30T11:08:46;21.10;60.40
9544;DHT22;30418;51.45933468;7.33152330;2023-09-30T11:11:15;21.10;60.20
9544;DHT22;30418;51.45933468;7.33152330;2023-09-30T11:13:44;21.10;60.00
9544;DHT22;30418;51.45933468;7.33152330;2023-09-30T11:16:12;21.20;60.10
9544;DHT22;30418;51.45933468;7.33152330;2023-09-30T11:18:41;21.20;59.90
9544;DHT22;30418;51.45933468;7.33152330;2023-09-30T11:21:11;21.30;59.80
9544;DHT22;30418;51.45933468;7.33152330;2023-09-30T11:23:41;21.30;60.30
9544;DHT22;30418;51.45933468;7.33152330;2023-09-30T11:26:10;21.40;59.80
9544;DHT22;30418;51.45933468;7.33152330;2023-09-30T11:28:42;21.40;59.80
9544;DHT22;30418;51.45933468;7.33152330;2023-09-30T11:31:12;21.50;59.90
9544;DHT22;30418;51.45933468;7.33152330;2023-09-30T11:33:49;21.50;59.80
9544;DHT22;30418;51.45933468;7.33152330;2023-09-30T11:36:21;21.60;59.50
9544;DHT22;30418;51.45933468;7.33152330;2023-09-30T11:38:51;21.60;59.30
9544;DHT22;30418;51.45933468;7.33152330;2023-09-30T11:41:21;21.60;59.20
9544;DHT22;30418;51.45933468;7.33152330;2023-09-30T11:44:01;21.60;58.90
9544;DHT22;30418;51.45933468;7.33152330;2023-09-30T11:46:32;21.60;58.60
9544;DHT22;30418;51.45933468;7.33152330;2023-09-30T11:49:03;21.60;58.80
9544;DHT22;30418;51.45933468;7.33152330;2023-09-30T11:51:44;21.50;58.70
9544;DHT22;30418;51.45933468;7.33152330;2023-09-30T11:54:14;21.50;58.20
9544;DHT22;30418;51.45933468;7.33152330;2023-09-30T11:56:43;21.50;58.70
9544;DHT22;30418;51.45933468;7.33152330;2023-09-30T11:59:13;21.50;58.70
9544;DHT22;30418;51.45933468;7.33152330;2023-09-30T12:01:41;21.50;58.70
9544;DHT22;30418;51.45933468;7.33152330;2023-09-30T12:04:16;21.50;58.50
9544;DHT22;30418;51.45933468;7.33152330;2023-09-30T12:06:48;21.50;58.30
9544;DHT22;30418;51.45933468;7.33152330;2023-09-30T12:09:18;21.50;58.30
9544;DHT22;30418;51.45933468;7.33152330;2023-09-30T12:11:53;21.50;58.20
9544;DHT22;30418;51.45933468;7.33152330;2023-09-30T12:14:20;21.50;58.20
9544;DHT22;30418;51.45933468;7.33152330;2023-09-30T12:16:49;21.60;58.10
9544;DHT22;30418;51.45933468;7.33152330;2023-09-30T12:19:18;21.60;58.50
9544;DHT22;30418;51.45933468;7.33152330;2023-09-30T12:21:48;21.60;57.90
9544;DHT22;30418;51.45933468;7.33152330;2023-09-30T12:24:18;21.70;57.50
9544;DHT22;30418;51.45933468;7.33152330;2023-09-30T12:26:49;21.70;58.10
9544;DHT22;30418;51.45933468;7.33152330;2023-09-30T12:29:20;21.70;57.50
9544;DHT22;30418;51.45933468;7.33152330;2023-09-30T12:31:52;21.70;57.60
9544;DHT22;30418;51.45933468;7.33152330;2023-09-30T12:34:22;21.80;57.50
9544;DHT22;30418;51.45933468;7.33152330;2023-09-30T12:36:54;21.80;57.50
9544;DHT22;30418;51.45933468;7.33152330;2023-09-30T12:39:24;21.80;57.20
9544;DHT22;30418;51.45933468;7.33152330;2023-09-30T12:41:54;21.80;56.90
9544;DHT22;30418;51.45933468;7.33152330;2023-09-30T12:44:22;21.90;57.00
9544;DHT22;30418;51.45933468;7.33152330;2023-09-30T12:46:51;21.90;57.00
9544;DHT22;30418;51.45933468;7.33152330;2023-09-30T12:49:19;21.90;56.80
9544;DHT22;30418;51.45933468;7.33152330;2023-09-30T12:51:48;22.00;57.30
9544;DHT22;30418;51.45933468;7.33152330;2023-09-30T12:54:18;22.00;56.70
9544;DHT22;30418;51.45933468;7.33152330;2023-09-30T12:56:46;22.00;56.60
9544;DHT22;30418;51.45933468;7.33152330;2023-09-30T12:59:15;22.10;56.80
9544;DHT22;30418;51.45933468;7.33152330;2023-09-30T13:01:44;22.10;56.80
9544;DHT22;30418;51.45933468;7.33152330;2023-09-30T13:04:14;22.20;56.80
9544;DHT22;30418;51.45933468;7.33152330;2023-09-30T13:06:43;22.20;56.60
9544;DHT22;30418;51.45933468;7.33152330;2023-09-30T13:09:12;22.20;56.40
9544;DHT22;30418;51.45933468;7.33152330;2023-09-30T13:11:41;22.30;56.20
9544;DHT22;30418;51.45933468;7.33152330;2023-09-30T13:14:10;22.30;56.10
9544;DHT22;30418;51.45933468;7.33152330;2023-09-30T13:16:39;22.30;56.90
9544;DHT22;30418;51.45933468;7.33152330;2023-09-30T13:19:08;22.30;56.20
9544;DHT22;30418;51.45933468;7.33152330;2023-09-30T13:21:37;22.30;56.10
9544;DHT22;30418;51.45933468;7.33152330;2023-09-30T13:24:06;22.30;55.90
9544;DHT22;30418;51.45933468;7.33152330;2023-09-30T13:26:39;22.40;56.00
9544;DHT22;30418;51.45933468;7.33152330;2023-09-30T13:29:09;22.30;55.60
9544;DHT22;30418;51.45933468;7.33152330;2023-09-30T13:31:39;22.40;55.80
9544;DHT22;30418;51.45933468;7.33152330;2023-09-30T13:34:07;22.40;55.60
9544;DHT22;30418;51.45933468;7.33152330;2023-09-30T13:36:36;22.40;55.70
9544;DHT22;30418;51.45933468;7.33152330;2023-09-30T13:39:04;22.40;55.50
9544;DHT22;30418;51.45933468;7.33152330;2023-09-30T13:41:36;22.40;55.50
9544;DHT22;30418;51.45933468;7.33152330;2023-09-30T13:44:04;22.50;55.70
9544;DHT22;30418;51.45933468;7.33152330;2023-09-30T13:46:34;22.50;55.70
9544;DHT22;30418;51.45933468;7.33152330;2023-09-30T13:49:03;22.50;55.70
9544;DHT22;30418;51.45933468;7.33152330;2023-09-30T13:51:32;22.60;55.70
9544;DHT22;30418;51.45933468;7.33152330;2023-09-30T13:54:00;22.60;55.50
9544;DHT22;30418;51.45933468;7.33152330;2023-09-30T13:56:29;22.60;55.60
9544;DHT22;30418;51.45933468;7.33152330;2023-09-30T13:58:58;22.70;55.60
9544;DHT22;30418;51.45933468;7.33152330;2023-09-30T14:01:26;22.70;55.60
9544;DHT22;30418;51.45933468;7.33152330;2023-09-30T14:03:56;22.70;55.50